»·PEaware :: N646CB KLGB-KSMO

N646CB :: KLGB-KSMO

FLIGHT INFORMATION

Flight Status: Arrived
Operator: Privately registered:
United States
More flights under this callsign
Pilot: Anonymous 26747 (26747)
Aircraft: CESSNA 172 SKYHAWK
(C172)
More flights by this aircraft type
Origin: KLGB Long Beach
United States
Destination: KSMO Santa Monica Mun
United States
More flights between these airports :: More routes between these airports
Route: SLI V8 POXKU V363 BAYJY V186 DARTS
File this flight plan on PilotEdge
Remarks: CSTP9
Altitude:
(Current/Filed)
6,000ft
Speed:
(Current/Filed)
95kts
Departed: 21-Apr-20 11:53 AM
Arrived: 21-Apr-20 12:36 PM
Distance/Time
Traveled:
19nm/0:43
Distance/Time
To Go:
Arrived

Flight Plot

Page will automatically refresh every two minutes.

Flight plan parsing failed; only flown route is shown


Map Options




Map Legend


Flown Route
Filed Route
Departure Airport
Arrival Airport
Navaid (VOR, NDB)
Fix

Horizontal Profiles

Position Reports

Time Latitude Longitude Heading Altitude Ground
Speed
21-Apr-20 11:38 33.812113 -118.150866 90 64ft 0kts
21-Apr-20 11:39 33.812113 -118.150866 89 64ft 0kts
21-Apr-20 11:40 33.812113 -118.150866 89 64ft 0kts
21-Apr-20 11:41 33.812113 -118.150866 89 64ft 0kts
21-Apr-20 11:42 33.812113 -118.150866 89 64ft 0kts
21-Apr-20 11:44 33.812113 -118.150866 89 64ft 0kts
21-Apr-20 11:45 33.812113 -118.150866 89 64ft 0kts
21-Apr-20 11:46 33.812113 -118.150866 89 64ft 0kts
21-Apr-20 11:47 33.812113 -118.150866 89 64ft 0kts
21-Apr-20 11:48 33.812113 -118.150866 89 64ft 0kts
21-Apr-20 11:49 33.813031 -118.149854 81 64ft 18kts
21-Apr-20 11:50 33.813289 -118.148227 33 64ft 0kts
21-Apr-20 11:51 33.813525 -118.148125 356 64ft 17kts
21-Apr-20 11:52 33.813285 -118.168475 268 789ft 72kts
21-Apr-20 11:53 33.798749 -118.183840 209 1816ft 75kts
21-Apr-20 11:54 33.784869 -118.173890 75 2746ft 84kts
21-Apr-20 11:55 33.786456 -118.146081 90 3690ft 84kts
21-Apr-20 11:56 33.785558 -118.116488 90 4580ft 90kts
21-Apr-20 11:57 33.784610 -118.086233 89 5438ft 92kts
21-Apr-20 11:58 33.783271 -118.053675 91 6001ft 112kts
21-Apr-20 11:59 33.789694 -118.017006 38 5998ft 115kts
21-Apr-20 12:00 33.802312 -117.981046 69 5997ft 119kts
21-Apr-20 12:01 33.811413 -117.942869 68 5996ft 118kts
21-Apr-20 12:02 33.820601 -117.905141 67 5995ft 116kts
21-Apr-20 12:03 33.829720 -117.867956 67 5995ft 115kts
21-Apr-20 12:05 33.838783 -117.831133 67 5994ft 114kts
21-Apr-20 12:06 33.847809 -117.794694 66 5995ft 113kts
21-Apr-20 12:07 33.870241 -117.781246 354 5994ft 99kts
21-Apr-20 12:08 33.897694 -117.782620 355 5993ft 99kts
21-Apr-20 12:09 33.925199 -117.783555 357 5991ft 98kts
21-Apr-20 12:10 33.952745 -117.784312 357 5993ft 98kts
21-Apr-20 12:11 33.980211 -117.785132 357 5996ft 99kts
21-Apr-20 12:12 34.007059 -117.788962 314 5996ft 100kts
21-Apr-20 12:13 34.018139 -117.820987 295 6000ft 104kts
21-Apr-20 12:14 34.028453 -117.854100 295 6001ft 106kts
21-Apr-20 12:15 34.038821 -117.887550 295 6000ft 106kts
21-Apr-20 12:16 34.049196 -117.921118 295 5999ft 106kts
21-Apr-20 12:17 34.059506 -117.954538 295 5997ft 106kts
21-Apr-20 12:18 34.069826 -117.988043 295 5996ft 106kts
21-Apr-20 12:19 34.080119 -118.021511 295 5993ft 106kts
21-Apr-20 12:20 34.090403 -118.054995 295 5990ft 106kts
21-Apr-20 12:21 34.100639 -118.088351 295 5989ft 105kts
21-Apr-20 12:22 34.110878 -118.121324 296 5989ft 104kts
21-Apr-20 12:23 34.120919 -118.153880 295 5987ft 102kts
21-Apr-20 12:23 34.129144 -118.180672 295 6003ft 99kts
21-Apr-20 12:24 34.137607 -118.212854 295 5586ft 100kts
21-Apr-20 12:26 34.149603 -118.248533 290 4896ft 96kts
21-Apr-20 12:27 34.145321 -118.279925 237 4238ft 108kts
21-Apr-20 12:27 34.129299 -118.302876 239 3719ft 105kts
21-Apr-20 12:28 34.116859 -118.327028 251 3165ft 78kts
21-Apr-20 12:30 34.100700 -118.350473 235 2854ft 81kts
21-Apr-20 12:30 34.086275 -118.367013 233 2438ft 86kts
21-Apr-20 12:31 34.069759 -118.386919 229 1804ft 82kts
21-Apr-20 12:32 34.054025 -118.405428 227 1363ft 77kts
21-Apr-20 12:33 34.038165 -118.424368 226 813ft 82kts
21-Apr-20 12:34 34.023920 -118.441753 227 363ft 63kts
21-Apr-20 12:35 34.015479 -118.451740 225 179ft 18kts

Navigation Log

Ident Type
Flight plan parsing failed, navigation log unavailable